sensor_id;sensor_type;location;lat;lon;timestamp;temperature;humidity
13198;DHT22;6664;52.514;13.440;2023-04-29T00:00:05;12.40;21.40
13198;DHT22;6664;52.514;13.440;2023-04-29T00:02:51;12.40;21.40
13198;DHT22;6664;52.514;13.440;2023-04-29T00:05:37;12.40;21.20
13198;DHT22;6664;52.514;13.440;2023-04-29T00:08:23;12.40;21.30
13198;DHT22;6664;52.514;13.440;2023-04-29T00:11:09;12.50;21.40
13198;DHT22;6664;52.514;13.440;2023-04-29T00:13:55;12.40;21.60
13198;DHT22;6664;52.514;13.440;2023-04-29T00:16:41;12.40;21.70
13198;DHT22;6664;52.514;13.440;2023-04-29T00:19:26;12.40;21.80
13198;DHT22;6664;52.514;13.440;2023-04-29T00:22:13;12.40;21.70
13198;DHT22;6664;52.514;13.440;2023-04-29T00:24:58;12.40;21.80
13198;DHT22;6664;52.514;13.440;2023-04-29T00:27:43;12.40;21.80
13198;DHT22;6664;52.514;13.440;2023-04-29T00:30:29;12.30;21.80
13198;DHT22;6664;52.514;13.440;2023-04-29T00:33:15;12.20;21.90
13198;DHT22;6664;52.514;13.440;2023-04-29T00:36:05;12.20;22.20
13198;DHT22;6664;52.514;13.440;2023-04-29T00:38:51;12.20;22.60
13198;DHT22;6664;52.514;13.440;2023-04-29T00:41:37;12.00;22.90
13198;DHT22;6664;52.514;13.440;2023-04-29T00:44:22;11.90;23.20
13198;DHT22;6664;52.514;13.440;2023-04-29T00:47:08;11.80;23.20
13198;DHT22;6664;52.514;13.440;2023-04-29T00:49:56;11.70;23.40
13198;DHT22;6664;52.514;13.440;2023-04-29T00:52:42;11.80;23.60
13198;DHT22;6664;52.514;13.440;2023-04-29T00:55:28;11.80;23.70
13198;DHT22;6664;52.514;13.440;2023-04-29T00:58:16;11.80;23.70
13198;DHT22;6664;52.514;13.440;2023-04-29T01:01:02;11.90;23.90
13198;DHT22;6664;52.514;13.440;2023-04-29T01:03:49;12.00;23.60
13198;DHT22;6664;52.514;13.440;2023-04-29T01:07:18;12.00;23.40
13198;DHT22;6664;52.514;13.440;2023-04-29T01:10:20;12.10;23.40
13198;DHT22;6664;52.514;13.440;2023-04-29T01:13:17;12.10;23.40
13198;DHT22;6664;52.514;13.440;2023-04-29T01:16:18;12.10;23.30
13198;DHT22;6664;52.514;13.440;2023-04-29T01:19:15;12.00;23.30
13198;DHT22;6664;52.514;13.440;2023-04-29T01:22:04;12.00;23.30
13198;DHT22;6664;52.514;13.440;2023-04-29T01:24:49;12.00;24.80
13198;DHT22;6664;52.514;13.440;2023-04-29T01:30:49;11.70;28.50
13198;DHT22;6664;52.514;13.440;2023-04-29T01:33:43;11.60;29.50
13198;DHT22;6664;52.514;13.440;2023-04-29T01:39:55;11.50;30.60
13198;DHT22;6664;52.514;13.440;2023-04-29T01:42:47;11.50;32.50
13198;DHT22;6664;52.514;13.440;2023-04-29T01:45:38;11.50;34.40
13198;DHT22;6664;52.514;13.440;2023-04-29T01:48:27;11.50;35.80
13198;DHT22;6664;52.514;13.440;2023-04-29T01:51:15;11.40;36.00
13198;DHT22;6664;52.514;13.440;2023-04-29T01:54:01;11.40;36.80
13198;DHT22;6664;52.514;13.440;2023-04-29T01:56:47;11.40;36.90
13198;DHT22;6664;52.514;13.440;2023-04-29T01:59:35;11.40;37.20
13198;DHT22;6664;52.514;13.440;2023-04-29T02:02:21;11.40;37.90
13198;DHT22;6664;52.514;13.440;2023-04-29T02:05:10;11.40;38.50
13198;DHT22;6664;52.514;13.440;2023-04-29T02:07:56;11.40;39.20
13198;DHT22;6664;52.514;13.440;2023-04-29T02:10:51;11.30;39.70
13198;DHT22;6664;52.514;13.440;2023-04-29T02:13:39;11.30;40.30
13198;DHT22;6664;52.514;13.440;2023-04-29T02:16:27;11.30;40.40
13198;DHT22;6664;52.514;13.440;2023-04-29T02:19:13;11.30;40.60
13198;DHT22;6664;52.514;13.440;2023-04-29T02:25:04;11.40;41.60
13198;DHT22;6664;52.514;13.440;2023-04-29T02:27:53;11.40;42.70
13198;DHT22;6664;52.514;13.440;2023-04-29T02:30:38;11.40;42.00
13198;DHT22;6664;52.514;13.440;2023-04-29T02:33:25;11.40;42.10
13198;DHT22;6664;52.514;13.440;2023-04-29T02:36:13;11.30;42.00
13198;DHT22;6664;52.514;13.440;2023-04-29T02:38:58;11.30;41.80
13198;DHT22;6664;52.514;13.440;2023-04-29T02:41:44;11.30;42.20
13198;DHT22;6664;52.514;13.440;2023-04-29T02:44:29;11.20;42.90
13198;DHT22;6664;52.514;13.440;2023-04-29T02:47:17;11.30;42.80
13198;DHT22;6664;52.514;13.440;2023-04-29T02:50:02;11.30;42.40
13198;DHT22;6664;52.514;13.440;2023-04-29T02:52:48;11.30;42.50
13198;DHT22;6664;52.514;13.440;2023-04-29T02:55:34;11.40;43.00
13198;DHT22;6664;52.514;13.440;2023-04-29T02:58:20;11.40;43.20
13198;DHT22;6664;52.514;13.440;2023-04-29T03:01:08;11.40;42.60
13198;DHT22;6664;52.514;13.440;2023-04-29T03:03:54;11.30;42.50
13198;DHT22;6664;52.514;13.440;2023-04-29T03:06:42;11.40;43.00
13198;DHT22;6664;52.514;13.440;2023-04-29T03:09:30;11.40;43.50
13198;DHT22;6664;52.514;13.440;2023-04-29T03:12:16;11.40;43.60
13198;DHT22;6664;52.514;13.440;2023-04-29T03:15:07;11.40;44.00
13198;DHT22;6664;52.514;13.440;2023-04-29T03:17:57;11.40;43.20
13198;DHT22;6664;52.514;13.440;2023-04-29T03:20:46;11.40;42.70
13198;DHT22;6664;52.514;13.440;2023-04-29T03:23:33;11.50;42.80
13198;DHT22;6664;52.514;13.440;2023-04-29T03:26:19;11.50;43.30
13198;DHT22;6664;52.514;13.440;2023-04-29T03:29:07;11.50;43.80
13198;DHT22;6664;52.514;13.440;2023-04-29T03:31:54;11.50;43.70
13198;DHT22;6664;52.514;13.440;2023-04-29T03:34:42;11.50;43.80
13198;DHT22;6664;52.514;13.440;2023-04-29T03:37:27;11.60;43.90
13198;DHT22;6664;52.514;13.440;2023-04-29T03:40:15;11.50;43.10
13198;DHT22;6664;52.514;13.440;2023-04-29T03:43:01;11.60;43.30
13198;DHT22;6664;52.514;13.440;2023-04-29T03:45:49;11.60;43.50
13198;DHT22;6664;52.514;13.440;2023-04-29T03:48:34;11.60;43.70
13198;DHT22;6664;52.514;13.440;2023-04-29T03:51:23;11.60;43.90
13198;DHT22;6664;52.514;13.440;2023-04-29T03:54:09;11.70;44.10
13198;DHT22;6664;52.514;13.440;2023-04-29T03:56:55;11.70;43.90
13198;DHT22;6664;52.514;13.440;2023-04-29T03:59:43;11.70;44.00
13198;DHT22;6664;52.514;13.440;2023-04-29T04:02:29;11.70;43.50
13198;DHT22;6664;52.514;13.440;2023-04-29T04:05:15;11.70;43.20
13198;DHT22;6664;52.514;13.440;2023-04-29T04:08:05;11.70;43.00
13198;DHT22;6664;52.514;13.440;2023-04-29T04:10:51;11.60;43.90
13198;DHT22;6664;52.514;13.440;2023-04-29T04:13:41;11.80;44.10
13198;DHT22;6664;52.514;13.440;2023-04-29T04:16:27;11.70;44.40
13198;DHT22;6664;52.514;13.440;2023-04-29T04:19:12;11.80;45.00
13198;DHT22;6664;52.514;13.440;2023-04-29T04:21:58;11.80;45.00
13198;DHT22;6664;52.514;13.440;2023-04-29T04:24:44;11.80;44.70
13198;DHT22;6664;52.514;13.440;2023-04-29T04:27:32;11.80;45.20
13198;DHT22;6664;52.514;13.440;2023-04-29T04:30:20;11.90;44.90
13198;DHT22;6664;52.514;13.440;2023-04-29T04:33:06;12.00;44.80
13198;DHT22;6664;52.514;13.440;2023-04-29T04:35:52;12.10;44.30
13198;DHT22;6664;52.514;13.440;2023-04-29T04:38:38;12.10;43.70
13198;DHT22;6664;52.514;13.440;2023-04-29T04:41:25;12.10;43.70
13198;DHT22;6664;52.514;13.440;2023-04-29T04:44:11;12.10;43.70
13198;DHT22;6664;52.514;13.440;2023-04-29T04:46:58;12.20;43.70
13198;DHT22;6664;52.514;13.440;2023-04-29T04:49:46;12.20;43.40
13198;DHT22;6664;52.514;13.440;2023-04-29T04:52:33;12.20;43.30
13198;DHT22;6664;52.514;13.440;2023-04-29T04:55:19;12.20;43.30
13198;DHT22;6664;52.514;13.440;2023-04-29T04:58:05;12.20;43.70
13198;DHT22;6664;52.514;13.440;2023-04-29T05:00:50;12.20;43.90
13198;DHT22;6664;52.514;13.440;2023-04-29T05:03:36;12.30;44.30
13198;DHT22;6664;52.514;13.440;2023-04-29T05:06:25;12.20;44.80
13198;DHT22;6664;52.514;13.440;2023-04-29T05:09:10;12.20;45.80
13198;DHT22;6664;52.514;13.440;2023-04-29T05:11:56;12.20;47.80
13198;DHT22;6664;52.514;13.440;2023-04-29T05:14:43;12.10;50.60
13198;DHT22;6664;52.514;13.440;2023-04-29T05:17:33;12.00;53.40
13198;DHT22;6664;52.514;13.440;2023-04-29T05:20:20;12.00;55.00
13198;DHT22;6664;52.514;13.440;2023-04-29T05:23:06;12.00;56.00
13198;DHT22;6664;52.514;13.440;2023-04-29T05:25:53;11.90;55.90
13198;DHT22;6664;52.514;13.440;2023-04-29T05:28:38;12.00;58.20
13198;DHT22;6664;52.514;13.440;2023-04-29T05:31:23;12.00;58.40
13198;DHT22;6664;52.514;13.440;2023-04-29T05:34:10;11.90;57.00
13198;DHT22;6664;52.514;13.440;2023-04-29T05:36:56;12.00;58.50
13198;DHT22;6664;52.514;13.440;2023-04-29T05:39:41;12.00;57.30
13198;DHT22;6664;52.514;13.440;2023-04-29T05:42:27;12.10;58.60
13198;DHT22;6664;52.514;13.440;2023-04-29T05:45:12;12.10;57.00
13198;DHT22;6664;52.514;13.440;2023-04-29T05:47:58;12.20;58.80
13198;DHT22;6664;52.514;13.440;2023-04-29T05:50:46;12.20;59.10
13198;DHT22;6664;52.514;13.440;2023-04-29T05:53:33;12.20;60.50
13198;DHT22;6664;52.514;13.440;2023-04-29T05:56:20;12.20;62.00
13198;DHT22;6664;52.514;13.440;2023-04-29T05:59:07;12.20;61.60
13198;DHT22;6664;52.514;13.440;2023-04-29T06:01:52;12.20;62.10
13198;DHT22;6664;52.514;13.440;2023-04-29T06:04:38;12.30;62.40
13198;DHT22;6664;52.514;13.440;2023-04-29T06:07:26;12.30;62.60
13198;DHT22;6664;52.514;13.440;2023-04-29T06:10:11;12.30;63.10
13198;DHT22;6664;52.514;13.440;2023-04-29T06:12:57;12.40;63.40
13198;DHT22;6664;52.514;13.440;2023-04-29T06:15:43;12.20;62.00
13198;DHT22;6664;52.514;13.440;2023-04-29T06:18:29;12.20;65.10
13198;DHT22;6664;52.514;13.440;2023-04-29T06:21:14;12.20;66.30
13198;DHT22;6664;52.514;13.440;2023-04-29T06:24:00;12.30;65.90
13198;DHT22;6664;52.514;13.440;2023-04-29T06:26:46;12.40;64.20
13198;DHT22;6664;52.514;13.440;2023-04-29T06:29:31;12.40;62.40
13198;DHT22;6664;52.514;13.440;2023-04-29T06:32:19;12.40;59.90
13198;DHT22;6664;52.514;13.440;2023-04-29T06:35:08;12.50;59.80
13198;DHT22;6664;52.514;13.440;2023-04-29T06:37:53;12.40;56.90
13198;DHT22;6664;52.514;13.440;2023-04-29T06:40:41;12.30;58.80
13198;DHT22;6664;52.514;13.440;2023-04-29T06:43:26;12.30;58.50
13198;DHT22;6664;52.514;13.440;2023-04-29T06:46:12;12.30;60.90
13198;DHT22;6664;52.514;13.440;2023-04-29T06:48:58;12.40;61.60
13198;DHT22;6664;52.514;13.440;2023-04-29T06:51:43;12.40;60.20
13198;DHT22;6664;52.514;13.440;2023-04-29T06:54:29;12.50;61.00
13198;DHT22;6664;52.514;13.440;2023-04-29T06:57:14;12.40;58.80
13198;DHT22;6664;52.514;13.440;2023-04-29T07:00:02;12.40;57.20
13198;DHT22;6664;52.514;13.440;2023-04-29T07:02:48;12.30;58.70
13198;DHT22;6664;52.514;13.440;2023-04-29T07:05:34;12.20;56.80
13198;DHT22;6664;52.514;13.440;2023-04-29T07:08:23;12.20;54.40
13198;DHT22;6664;52.514;13.440;2023-04-29T07:11:08;12.30;55.00
13198;DHT22;6664;52.514;13.440;2023-04-29T07:13:56;12.30;54.40
13198;DHT22;6664;52.514;13.440;2023-04-29T07:16:41;12.30;54.30
13198;DHT22;6664;52.514;13.440;2023-04-29T07:19:27;12.30;54.00
13198;DHT22;6664;52.514;13.440;2023-04-29T07:22:13;12.40;53.80
13198;DHT22;6664;52.514;13.440;2023-04-29T07:24:58;12.20;53.70
13198;DHT22;6664;52.514;13.440;2023-04-29T07:27:44;12.20;54.90
13198;DHT22;6664;52.514;13.440;2023-04-29T07:30:32;12.20;56.00
13198;DHT22;6664;52.514;13.440;2023-04-29T07:33:18;12.30;54.20
13198;DHT22;6664;52.514;13.440;2023-04-29T07:36:03;12.30;52.60
13198;DHT22;6664;52.514;13.440;2023-04-29T07:38:51;12.30;52.70
13198;DHT22;6664;52.514;13.440;2023-04-29T07:41:39;12.20;51.50
13198;DHT22;6664;52.514;13.440;2023-04-29T07:44:28;12.10;51.70
13198;DHT22;6664;52.514;13.440;2023-04-29T07:47:16;12.10;51.30
13198;DHT22;6664;52.514;13.440;2023-04-29T07:50:01;12.10;50.80
13198;DHT22;6664;52.514;13.440;2023-04-29T07:52:46;12.20;50.10
13198;DHT22;6664;52.514;13.440;2023-04-29T07:55:34;12.20;48.90
13198;DHT22;6664;52.514;13.440;2023-04-29T07:58:21;12.10;49.20
13198;DHT22;6664;52.514;13.440;2023-04-29T08:01:07;12.20;46.10
13198;DHT22;6664;52.514;13.440;2023-04-29T08:03:53;12.00;46.90
13198;DHT22;6664;52.514;13.440;2023-04-29T08:06:39;12.00;48.30
13198;DHT22;6664;52.514;13.440;2023-04-29T08:09:26;12.20;49.40
13198;DHT22;6664;52.514;13.440;2023-04-29T08:12:13;12.10;48.40
13198;DHT22;6664;52.514;13.440;2023-04-29T08:14:59;12.20;48.00
13198;DHT22;6664;52.514;13.440;2023-04-29T08:17:46;12.20;49.10
13198;DHT22;6664;52.514;13.440;2023-04-29T08:20:34;11.90;48.50
13198;DHT22;6664;52.514;13.440;2023-04-29T08:23:19;11.90;48.50
13198;DHT22;6664;52.514;13.440;2023-04-29T08:26:11;12.00;48.00
13198;DHT22;6664;52.514;13.440;2023-04-29T08:29:00;11.80;47.20
13198;DHT22;6664;52.514;13.440;2023-04-29T08:31:48;11.90;47.30
13198;DHT22;6664;52.514;13.440;2023-04-29T08:34:34;11.80;47.10
13198;DHT22;6664;52.514;13.440;2023-04-29T08:37:20;11.90;45.80
13198;DHT22;6664;52.514;13.440;2023-04-29T08:40:07;11.80;46.90
13198;DHT22;6664;52.514;13.440;2023-04-29T08:42:53;11.90;46.80
13198;DHT22;6664;52.514;13.440;2023-04-29T08:45:41;11.90;45.50
13198;DHT22;6664;52.514;13.440;2023-04-29T08:48:30;12.00;45.00
13198;DHT22;6664;52.514;13.440;2023-04-29T08:51:16;11.90;43.60
13198;DHT22;6664;52.514;13.440;2023-04-29T08:54:02;11.90;44.30
13198;DHT22;6664;52.514;13.440;2023-04-29T08:56:48;12.00;43.20
13198;DHT22;6664;52.514;13.440;2023-04-29T08:59:35;11.80;43.60
13198;DHT22;6664;52.514;13.440;2023-04-29T09:02:24;11.80;43.60
13198;DHT22;6664;52.514;13.440;2023-04-29T09:05:12;11.70;42.90
13198;DHT22;6664;52.514;13.440;2023-04-29T09:07:59;11.50;44.00
13198;DHT22;6664;52.514;13.440;2023-04-29T09:10:47;11.50;44.10
13198;DHT22;6664;52.514;13.440;2023-04-29T09:13:33;11.40;44.20
13198;DHT22;6664;52.514;13.440;2023-04-29T09:16:18;11.40;44.10
13198;DHT22;6664;52.514;13.440;2023-04-29T09:19:04;11.20;44.00
13198;DHT22;6664;52.514;13.440;2023-04-29T09:21:56;11.30;44.20
13198;DHT22;6664;52.514;13.440;2023-04-29T09:24:42;11.30;44.40
13198;DHT22;6664;52.514;13.440;2023-04-29T09:27:29;11.30;44.40
13198;DHT22;6664;52.514;13.440;2023-04-29T09:30:15;11.20;44.80
13198;DHT22;6664;52.514;13.440;2023-04-29T09:33:08;11.10;45.50
13198;DHT22;6664;52.514;13.440;2023-04-29T09:35:54;11.10;46.10
13198;DHT22;6664;52.514;13.440;2023-04-29T09:38:53;11.10;46.70
13198;DHT22;6664;52.514;13.440;2023-04-29T09:44:41;11.20;48.00
13198;DHT22;6664;52.514;13.440;2023-04-29T09:47:31;11.00;48.00
13198;DHT22;6664;52.514;13.440;2023-04-29T09:50:17;11.00;48.40
13198;DHT22;6664;52.514;13.440;2023-04-29T09:53:05;11.00;48.10
13198;DHT22;6664;52.514;13.440;2023-04-29T09:58:41;11.10;49.00
13198;DHT22;6664;52.514;13.440;2023-04-29T10:01:30;11.00;47.80
13198;DHT22;6664;52.514;13.440;2023-04-29T10:04:18;11.00;47.90
13198;DHT22;6664;52.514;13.440;2023-04-29T10:07:05;11.00;47.50
13198;DHT22;6664;52.514;13.440;2023-04-29T10:09:52;10.90;47.10
13198;DHT22;6664;52.514;13.440;2023-04-29T10:12:42;11.00;46.70
13198;DHT22;6664;52.514;13.440;2023-04-29T10:15:38;11.20;45.80
13198;DHT22;6664;52.514;13.440;2023-04-29T10:18:35;11.30;43.90
13198;DHT22;6664;52.514;13.440;2023-04-29T10:21:30;11.20;43.40
13198;DHT22;6664;52.514;13.440;2023-04-29T10:24:17;11.30;43.30
13198;DHT22;6664;52.514;13.440;2023-04-29T10:27:06;11.40;43.30
13198;DHT22;6664;52.514;13.440;2023-04-29T10:29:53;11.50;42.50
13198;DHT22;6664;52.514;13.440;2023-04-29T10:32:42;11.50;41.50
13198;DHT22;6664;52.514;13.440;2023-04-29T10:35:36;11.50;40.40
13198;DHT22;6664;52.514;13.440;2023-04-29T10:41:20;11.80;37.60
13198;DHT22;6664;52.514;13.440;2023-04-29T10:44:10;11.80;37.60
13198;DHT22;6664;52.514;13.440;2023-04-29T10:47:18;11.80;37.60
13198;DHT22;6664;52.514;13.440;2023-04-29T10:50:04;11.80;38.10
13198;DHT22;6664;52.514;13.440;2023-04-29T10:52:51;12.00;38.90
13198;DHT22;6664;52.514;13.440;2023-04-29T10:55:37;12.10;37.30
13198;DHT22;6664;52.514;13.440;2023-04-29T10:58:45;12.10;36.40
13198;DHT22;6664;52.514;13.440;2023-04-29T11:04:30;12.20;36.00
13198;DHT22;6664;52.514;13.440;2023-04-29T11:07:26;12.30;33.30
13198;DHT22;6664;52.514;13.440;2023-04-29T11:10:13;12.50;32.70
13198;DHT22;6664;52.514;13.440;2023-04-29T11:16:08;12.90;29.00
13198;DHT22;6664;52.514;13.440;2023-04-29T11:19:08;13.20;30.00
13198;DHT22;6664;52.514;13.440;2023-04-29T11:25:06;13.40;27.00
13198;DHT22;6664;52.514;13.440;2023-04-29T11:27:53;13.50;27.00
13198;DHT22;6664;52.514;13.440;2023-04-29T11:30:43;13.40;27.40
13198;DHT22;6664;52.514;13.440;2023-04-29T11:33:31;13.60;27.20
13198;DHT22;6664;52.514;13.440;2023-04-29T11:36:19;13.70;26.50
13198;DHT22;6664;52.514;13.440;2023-04-29T11:39:05;13.90;24.60
13198;DHT22;6664;52.514;13.440;2023-04-29T11:41:51;14.50;23.10
13198;DHT22;6664;52.514;13.440;2023-04-29T11:44:37;14.60;21.60
13198;DHT22;6664;52.514;13.440;2023-04-29T11:47:27;14.80;20.80
13198;DHT22;6664;52.514;13.440;2023-04-29T11:50:14;14.60;19.60
13198;DHT22;6664;52.514;13.440;2023-04-29T11:53:01;14.30;21.00
13198;DHT22;6664;52.514;13.440;2023-04-29T11:55:47;14.50;21.40
13198;DHT22;6664;52.514;13.440;2023-04-29T11:58:32;14.90;20.20
13198;DHT22;6664;52.514;13.440;2023-04-29T12:01:19;15.00;20.20
13198;DHT22;6664;52.514;13.440;2023-04-29T12:04:07;14.90;18.70
13198;DHT22;6664;52.514;13.440;2023-04-29T12:06:52;14.80;19.00
13198;DHT22;6664;52.514;13.440;2023-04-29T12:09:44;14.60;18.70
13198;DHT22;6664;52.514;13.440;2023-04-29T12:12:30;14.30;19.20
13198;DHT22;6664;52.514;13.440;2023-04-29T12:15:20;14.20;19.70
13198;DHT22;6664;52.514;13.440;2023-04-29T12:18:06;14.00;20.50
13198;DHT22;6664;52.514;13.440;2023-04-29T12:20:53;13.70;20.80
13198;DHT22;6664;52.514;13.440;2023-04-29T12:23:40;13.60;21.80
13198;DHT22;6664;52.514;13.440;2023-04-29T12:26:29;13.50;22.20
13198;DHT22;6664;52.514;13.440;2023-04-29T12:29:15;13.70;22.20
13198;DHT22;6664;52.514;13.440;2023-04-29T12:32:05;13.60;22.60
13198;DHT22;6664;52.514;13.440;2023-04-29T12:34:51;13.90;22.50
13198;DHT22;6664;52.514;13.440;2023-04-29T12:37:38;14.20;21.40
13198;DHT22;6664;52.514;13.440;2023-04-29T12:40:23;14.80;20.10
13198;DHT22;6664;52.514;13.440;2023-04-29T12:43:10;14.80;18.90
13198;DHT22;6664;52.514;13.440;2023-04-29T12:46:06;15.30;17.60
13198;DHT22;6664;52.514;13.440;2023-04-29T12:48:52;15.50;17.30
13198;DHT22;6664;52.514;13.440;2023-04-29T12:51:38;15.30;16.70
13198;DHT22;6664;52.514;13.440;2023-04-29T12:54:23;15.20;17.10
13198;DHT22;6664;52.514;13.440;2023-04-29T12:57:12;15.10;17.20
13198;DHT22;6664;52.514;13.440;2023-04-29T12:59:58;15.50;16.80
13198;DHT22;6664;52.514;13.440;2023-04-29T13:02:44;16.30;15.50
13198;DHT22;6664;52.514;13.440;2023-04-29T13:05:30;16.30;14.60
13198;DHT22;6664;52.514;13.440;2023-04-29T13:08:17;16.70;13.80
13198;DHT22;6664;52.514;13.440;2023-04-29T13:11:06;16.40;13.00
13198;DHT22;6664;52.514;13.440;2023-04-29T13:13:55;16.50;13.00
13198;DHT22;6664;52.514;13.440;2023-04-29T13:16:41;16.30;13.10
13198;DHT22;6664;52.514;13.440;2023-04-29T13:19:27;15.60;13.90
13198;DHT22;6664;52.514;13.440;2023-04-29T13:22:33;16.00;13.70
13198;DHT22;6664;52.514;13.440;2023-04-29T13:25:18;15.70;13.60
13198;DHT22;6664;52.514;13.440;2023-04-29T13:28:06;16.00;13.60
13198;DHT22;6664;52.514;13.440;2023-04-29T13:30:52;16.30;13.00
13198;DHT22;6664;52.514;13.440;2023-04-29T13:33:38;16.60;12.60
13198;DHT22;6664;52.514;13.440;2023-04-29T13:36:26;16.70;11.90
13198;DHT22;6664;52.514;13.440;2023-04-29T13:39:14;16.10;12.10
13198;DHT22;6664;52.514;13.440;2023-04-29T13:42:00;16.40;12.40
13198;DHT22;6664;52.514;13.440;2023-04-29T13:44:47;16.50;12.30
13198;DHT22;6664;52.514;13.440;2023-04-29T13:47:37;16.20;11.90
13198;DHT22;6664;52.514;13.440;2023-04-29T13:50:43;16.10;12.80
13198;DHT22;6664;52.514;13.440;2023-04-29T13:53:33;17.00;10.50
13198;DHT22;6664;52.514;13.440;2023-04-29T13:56:39;16.90;9.80
13198;DHT22;6664;52.514;13.440;2023-04-29T13:59:45;16.70;9.50
13198;DHT22;6664;52.514;13.440;2023-04-29T14:02:37;16.30;10.50
13198;DHT22;6664;52.514;13.440;2023-04-29T14:05:25;16.10;10.70
13198;DHT22;6664;52.514;13.440;2023-04-29T14:08:11;15.90;11.70
13198;DHT22;6664;52.514;13.440;2023-04-29T14:10:58;16.40;11.30
13198;DHT22;6664;52.514;13.440;2023-04-29T14:13:43;16.40;10.40
13198;DHT22;6664;52.514;13.440;2023-04-29T14:16:29;16.30;10.50
13198;DHT22;6664;52.514;13.440;2023-04-29T14:19:15;15.60;10.50
13198;DHT22;6664;52.514;13.440;2023-04-29T14:22:01;15.50;11.20
13198;DHT22;6664;52.514;13.440;2023-04-29T14:24:47;15.30;11.90
13198;DHT22;6664;52.514;13.440;2023-04-29T14:27:36;15.30;12.10
13198;DHT22;6664;52.514;13.440;2023-04-29T14:30:24;15.40;12.10
13198;DHT22;6664;52.514;13.440;2023-04-29T14:33:09;16.00;11.60
13198;DHT22;6664;52.514;13.440;2023-04-29T14:35:54;16.50;10.20
13198;DHT22;6664;52.514;13.440;2023-04-29T14:38:40;16.30;9.70
13198;DHT22;6664;52.514;13.440;2023-04-29T14:41:26;17.00;8.60
13198;DHT22;6664;52.514;13.440;2023-04-29T14:44:12;17.00;8.60
13198;DHT22;6664;52.514;13.440;2023-04-29T14:46:58;17.10;8.70
13198;DHT22;6664;52.514;13.440;2023-04-29T14:49:43;17.20;8.20
13198;DHT22;6664;52.514;13.440;2023-04-29T14:52:29;17.10;7.40
13198;DHT22;6664;52.514;13.440;2023-04-29T14:55:17;20.40;4.80
13198;DHT22;6664;52.514;13.440;2023-04-29T14:58:03;19.50;3.20
13198;DHT22;6664;52.514;13.440;2023-04-29T15:00:53;19.40;3.80
13198;DHT22;6664;52.514;13.440;2023-04-29T15:03:39;18.50;4.30
13198;DHT22;6664;52.514;13.440;2023-04-29T15:06:29;17.80;5.20
13198;DHT22;6664;52.514;13.440;2023-04-29T15:09:15;17.70;4.30
13198;DHT22;6664;52.514;13.440;2023-04-29T15:12:03;18.30;4.00
13198;DHT22;6664;52.514;13.440;2023-04-29T15:14:51;18.30;2.70
13198;DHT22;6664;52.514;13.440;2023-04-29T15:17:42;17.40;3.00
13198;DHT22;6664;52.514;13.440;2023-04-29T15:20:28;17.40;3.20
13198;DHT22;6664;52.514;13.440;2023-04-29T15:23:16;16.90;3.90
13198;DHT22;6664;52.514;13.440;2023-04-29T15:26:01;17.30;4.10
13198;DHT22;6664;52.514;13.440;2023-04-29T15:28:47;18.40;3.20
13198;DHT22;6664;52.514;13.440;2023-04-29T15:31:33;18.50;1.30
13198;DHT22;6664;52.514;13.440;2023-04-29T15:34:19;18.70;1.00
13198;DHT22;6664;52.514;13.440;2023-04-29T15:37:06;18.30;1.20
13198;DHT22;6664;52.514;13.440;2023-04-29T15:39:51;17.90;2.50
13198;DHT22;6664;52.514;13.440;2023-04-29T15:42:37;18.60;1.50
13198;DHT22;6664;52.514;13.440;2023-04-29T15:45:24;18.00;3.10
13198;DHT22;6664;52.514;13.440;2023-04-29T15:48:10;17.70;3.40
13198;DHT22;6664;52.514;13.440;2023-04-29T15:50:56;17.00;4.40
13198;DHT22;6664;52.514;13.440;2023-04-29T15:53:41;16.60;5.50
13198;DHT22;6664;52.514;13.440;2023-04-29T15:56:30;16.20;6.20
13198;DHT22;6664;52.514;13.440;2023-04-29T15:59:15;15.90;7.00
13198;DHT22;6664;52.514;13.440;2023-04-29T16:02:03;15.60;7.60
13198;DHT22;6664;52.514;13.440;2023-04-29T16:04:54;15.70;8.40
13198;DHT22;6664;52.514;13.440;2023-04-29T16:07:40;15.70;9.00
13198;DHT22;6664;52.514;13.440;2023-04-29T16:10:25;16.00;8.60
13198;DHT22;6664;52.514;13.440;2023-04-29T16:13:11;16.20;8.10
13198;DHT22;6664;52.514;13.440;2023-04-29T16:15:57;16.50;7.90
13198;DHT22;6664;52.514;13.440;2023-04-29T16:18:43;16.70;7.60
13198;DHT22;6664;52.514;13.440;2023-04-29T16:21:28;16.50;7.60
13198;DHT22;6664;52.514;13.440;2023-04-29T16:24:14;16.80;7.10
13198;DHT22;6664;52.514;13.440;2023-04-29T16:27:00;16.90;6.70
13198;DHT22;6664;52.514;13.440;2023-04-29T16:29:45;16.30;7.60
13198;DHT22;6664;52.514;13.440;2023-04-29T16:32:31;16.00;8.30
13198;DHT22;6664;52.514;13.440;2023-04-29T16:35:18;15.60;9.50
13198;DHT22;6664;52.514;13.440;2023-04-29T16:38:10;15.50;9.90
13198;DHT22;6664;52.514;13.440;2023-04-29T16:40:57;15.60;10.10
13198;DHT22;6664;52.514;13.440;2023-04-29T16:43:43;15.50;9.90
13198;DHT22;6664;52.514;13.440;2023-04-29T16:46:28;15.30;10.40
13198;DHT22;6664;52.514;13.440;2023-04-29T16:49:18;15.40;10.40
13198;DHT22;6664;52.514;13.440;2023-04-29T16:52:09;16.00;9.80
13198;DHT22;6664;52.514;13.440;2023-04-29T16:54:56;17.50;6.30
13198;DHT22;6664;52.514;13.440;2023-04-29T16:57:45;18.00;4.60
13198;DHT22;6664;52.514;13.440;2023-04-29T17:00:33;18.10;4.10
13198;DHT22;6664;52.514;13.440;2023-04-29T17:03:21;18.10;3.00
13198;DHT22;6664;52.514;13.440;2023-04-29T17:06:07;18.70;1.50
13198;DHT22;6664;52.514;13.440;2023-04-29T17:08:53;18.20;1.00
13198;DHT22;6664;52.514;13.440;2023-04-29T17:11:39;18.60;1.00
13198;DHT22;6664;52.514;13.440;2023-04-29T17:14:26;19.10;1.00
13198;DHT22;6664;52.514;13.440;2023-04-29T17:17:12;18.10;1.00
13198;DHT22;6664;52.514;13.440;2023-04-29T17:19:58;16.90;1.00
13198;DHT22;6664;52.514;13.440;2023-04-29T17:22:43;16.10;1.00
13198;DHT22;6664;52.514;13.440;2023-04-29T17:25:29;15.60;1.00
13198;DHT22;6664;52.514;13.440;2023-04-29T17:28:14;15.20;1.00
13198;DHT22;6664;52.514;13.440;2023-04-29T17:31:00;15.50;1.00
13198;DHT22;6664;52.514;13.440;2023-04-29T17:33:46;15.20;1.00
13198;DHT22;6664;52.514;13.440;2023-04-29T17:36:46;15.00;1.00
13198;DHT22;6664;52.514;13.440;2023-04-29T17:39:37;14.90;1.00
13198;DHT22;6664;52.514;13.440;2023-04-29T17:42:25;14.80;1.00
13198;DHT22;6664;52.514;13.440;2023-04-29T17:45:11;14.60;1.00
13198;DHT22;6664;52.514;13.440;2023-04-29T17:47:56;14.50;1.00
13198;DHT22;6664;52.514;13.440;2023-04-29T17:50:43;14.50;1.20
13198;DHT22;6664;52.514;13.440;2023-04-29T17:53:30;14.60;1.40
13198;DHT22;6664;52.514;13.440;2023-04-29T17:56:17;14.60;1.20
13198;DHT22;6664;52.514;13.440;2023-04-29T17:59:05;14.60;1.30
13198;DHT22;6664;52.514;13.440;2023-04-29T18:01:52;14.30;1.80
13198;DHT22;6664;52.514;13.440;2023-04-29T18:04:40;14.20;2.00
13198;DHT22;6664;52.514;13.440;2023-04-29T18:07:26;14.00;2.40
13198;DHT22;6664;52.514;13.440;2023-04-29T18:10:14;13.80;2.90